sensor_id;sensor_type;location;lat;lon;timestamp;P1;durP1;ratioP1;P2;durP2;ratioP2
74644;SDS011;63163;55.630;37.594;2022-09-25T00:00:26;1.6;;;0.7;;
74644;SDS011;63163;55.630;37.594;2022-09-25T00:01:26;1.5;;;0.5;;
74644;SDS011;63163;55.630;37.594;2022-09-25T00:02:27;0.6;;;0.5;;
74644;SDS011;63163;55.630;37.594;2022-09-25T00:03:28;1.9;;;0.7;;
74644;SDS011;63163;55.630;37.594;2022-09-25T00:04:28;0.6;;;0.3;;
74644;SDS011;63163;55.630;37.594;2022-09-25T00:05:29;1.5;;;0.6;;
74644;SDS011;63163;55.630;37.594;2022-09-25T00:06:30;1.2;;;0.9;;
74644;SDS011;63163;55.630;37.594;2022-09-25T00:07:32;1.2;;;0.7;;
74644;SDS011;63163;55.630;37.594;2022-09-25T00:08:32;3.1;;;1.3;;
74644;SDS011;63163;55.630;37.594;2022-09-25T00:09:33;2.8;;;1.7;;
74644;SDS011;63163;55.630;37.594;2022-09-25T00:10:38;1.0;;;0.6;;
74644;SDS011;63163;55.630;37.594;2022-09-25T00:11:39;1.4;;;0.6;;
74644;SDS011;63163;55.630;37.594;2022-09-25T00:12:39;1.3;;;0.5;;
74644;SDS011;63163;55.630;37.594;2022-09-25T00:13:41;2.8;;;0.7;;
74644;SDS011;63163;55.630;37.594;2022-09-25T00:14:42;1.6;;;0.6;;
74644;SDS011;63163;55.630;37.594;2022-09-25T00:15:44;0.8;;;0.5;;
74644;SDS011;63163;55.630;37.594;2022-09-25T00:16:45;0.6;;;0.5;;
74644;SDS011;63163;55.630;37.594;2022-09-25T00:17:46;0.8;;;0.6;;
74644;SDS011;63163;55.630;37.594;2022-09-25T00:18:47;0.7;;;0.5;;
74644;SDS011;63163;55.630;37.594;2022-09-25T00:20:58;1.0;;;0.7;;
74644;SDS011;63163;55.630;37.594;2022-09-25T00:21:59;1.2;;;0.6;;
74644;SDS011;63163;55.630;37.594;2022-09-25T00:22:59;0.6;;;0.5;;
74644;SDS011;63163;55.630;37.594;2022-09-25T00:24:02;0.5;;;0.4;;
74644;SDS011;63163;55.630;37.594;2022-09-25T00:25:04;0.9;;;0.5;;
74644;SDS011;63163;55.630;37.594;2022-09-25T00:26:05;1.1;;;0.5;;
74644;SDS011;63163;55.630;37.594;2022-09-25T00:27:07;2.1;;;0.6;;
74644;SDS011;63163;55.630;37.594;2022-09-25T00:28:08;1.5;;;0.5;;
74644;SDS011;63163;55.630;37.594;2022-09-25T00:29:10;1.3;;;0.5;;
74644;SDS011;63163;55.630;37.594;2022-09-25T00:30:13;0.9;;;0.5;;
74644;SDS011;63163;55.630;37.594;2022-09-25T00:31:17;2.8;;;1.3;;
74644;SDS011;63163;55.630;37.594;2022-09-25T00:32:18;1.6;;;0.5;;
74644;SDS011;63163;55.630;37.594;2022-09-25T00:33:18;1.6;;;0.4;;
74644;SDS011;63163;55.630;37.594;2022-09-25T00:34:19;0.6;;;0.5;;
74644;SDS011;63163;55.630;37.594;2022-09-25T00:35:19;0.4;;;0.4;;
74644;SDS011;63163;55.630;37.594;2022-09-25T00:36:20;1.1;;;0.4;;
74644;SDS011;63163;55.630;37.594;2022-09-25T00:37:20;1.0;;;0.5;;
74644;SDS011;63163;55.630;37.594;2022-09-25T00:38:21;0.4;;;0.4;;
74644;SDS011;63163;55.630;37.594;2022-09-25T00:39:22;1.0;;;0.5;;
74644;SDS011;63163;55.630;37.594;2022-09-25T00:40:23;0.7;;;0.4;;
74644;SDS011;63163;55.630;37.594;2022-09-25T00:41:24;1.2;;;0.3;;
74644;SDS011;63163;55.630;37.594;2022-09-25T00:42:26;0.2;;;0.2;;
74644;SDS011;63163;55.630;37.594;2022-09-25T00:43:34;0.3;;;0.3;;
74644;SDS011;63163;55.630;37.594;2022-09-25T00:44:53;1.0;;;0.5;;
74644;SDS011;63163;55.630;37.594;2022-09-25T00:45:55;0.5;;;0.4;;
74644;SDS011;63163;55.630;37.594;2022-09-25T00:46:56;1.6;;;0.3;;
74644;SDS011;63163;55.630;37.594;2022-09-25T00:47:57;0.4;;;0.4;;
74644;SDS011;63163;55.630;37.594;2022-09-25T00:49:00;1.0;;;0.4;;
74644;SDS011;63163;55.630;37.594;2022-09-25T00:50:03;1.1;;;0.4;;
74644;SDS011;63163;55.630;37.594;2022-09-25T00:51:04;0.6;;;0.4;;
74644;SDS011;63163;55.630;37.594;2022-09-25T00:52:06;0.9;;;0.5;;
74644;SDS011;63163;55.630;37.594;2022-09-25T00:53:08;0.3;;;0.3;;
74644;SDS011;63163;55.630;37.594;2022-09-25T00:54:12;0.5;;;0.3;;
74644;SDS011;63163;55.630;37.594;2022-09-25T00:55:15;0.7;;;0.5;;
74644;SDS011;63163;55.630;37.594;2022-09-25T00:56:15;0.6;;;0.2;;
74644;SDS011;63163;55.630;37.594;2022-09-25T00:57:16;0.7;;;0.4;;
74644;SDS011;63163;55.630;37.594;2022-09-25T00:58:18;0.4;;;0.3;;
74644;SDS011;63163;55.630;37.594;2022-09-25T00:59:21;1.5;;;0.5;;
74644;SDS011;63163;55.630;37.594;2022-09-25T01:00:23;1.3;;;0.6;;
74644;SDS011;63163;55.630;37.594;2022-09-25T01:01:24;0.3;;;0.3;;
74644;SDS011;63163;55.630;37.594;2022-09-25T01:02:25;0.6;;;0.4;;
74644;SDS011;63163;55.630;37.594;2022-09-25T01:03:26;1.3;;;0.4;;
74644;SDS011;63163;55.630;37.594;2022-09-25T01:04:27;0.6;;;0.3;;
74644;SDS011;63163;55.630;37.594;2022-09-25T01:05:30;0.5;;;0.4;;
74644;SDS011;63163;55.630;37.594;2022-09-25T01:06:31;0.9;;;0.5;;
74644;SDS011;63163;55.630;37.594;2022-09-25T01:07:32;0.9;;;0.4;;
74644;SDS011;63163;55.630;37.594;2022-09-25T01:08:33;0.6;;;0.3;;
74644;SDS011;63163;55.630;37.594;2022-09-25T01:09:34;0.5;;;0.4;;
74644;SDS011;63163;55.630;37.594;2022-09-25T01:10:34;0.8;;;0.5;;
74644;SDS011;63163;55.630;37.594;2022-09-25T01:11:35;0.7;;;0.3;;
74644;SDS011;63163;55.630;37.594;2022-09-25T01:12:37;0.7;;;0.5;;
74644;SDS011;63163;55.630;37.594;2022-09-25T01:13:38;0.9;;;0.5;;
74644;SDS011;63163;55.630;37.594;2022-09-25T01:14:40;1.2;;;0.4;;
74644;SDS011;63163;55.630;37.594;2022-09-25T01:15:42;2.8;;;0.5;;
74644;SDS011;63163;55.630;37.594;2022-09-25T01:16:45;0.9;;;0.5;;
74644;SDS011;63163;55.630;37.594;2022-09-25T01:17:53;0.8;;;0.5;;
74644;SDS011;63163;55.630;37.594;2022-09-25T01:19:05;1.5;;;0.5;;
74644;SDS011;63163;55.630;37.594;2022-09-25T01:20:13;0.6;;;0.5;;
74644;SDS011;63163;55.630;37.594;2022-09-25T01:21:32;1.8;;;0.4;;
74644;SDS011;63163;55.630;37.594;2022-09-25T01:22:40;0.5;;;0.4;;
74644;SDS011;63163;55.630;37.594;2022-09-25T01:23:51;1.1;;;0.5;;
74644;SDS011;63163;55.630;37.594;2022-09-25T01:24:56;1.3;;;0.5;;
74644;SDS011;63163;55.630;37.594;2022-09-25T01:26:03;2.9;;;1.8;;
74644;SDS011;63163;55.630;37.594;2022-09-25T01:27:19;1.5;;;0.9;;
74644;SDS011;63163;55.630;37.594;2022-09-25T01:28:35;5.5;;;3.6;;
74644;SDS011;63163;55.630;37.594;2022-09-25T01:29:38;0.6;;;0.4;;
74644;SDS011;63163;55.630;37.594;2022-09-25T01:30:40;0.6;;;0.4;;
74644;SDS011;63163;55.630;37.594;2022-09-25T01:31:44;1.5;;;0.4;;
74644;SDS011;63163;55.630;37.594;2022-09-25T01:32:49;0.6;;;0.4;;
74644;SDS011;63163;55.630;37.594;2022-09-25T01:33:52;0.7;;;0.4;;
74644;SDS011;63163;55.630;37.594;2022-09-25T01:34:57;0.7;;;0.4;;
74644;SDS011;63163;55.630;37.594;2022-09-25T01:35:59;0.7;;;0.4;;
74644;SDS011;63163;55.630;37.594;2022-09-25T01:37:02;1.1;;;0.4;;
74644;SDS011;63163;55.630;37.594;2022-09-25T01:38:07;2.1;;;0.5;;
74644;SDS011;63163;55.630;37.594;2022-09-25T01:39:10;0.7;;;0.5;;
74644;SDS011;63163;55.630;37.594;2022-09-25T01:40:14;1.4;;;0.5;;
74644;SDS011;63163;55.630;37.594;2022-09-25T01:41:18;0.7;;;0.4;;
74644;SDS011;63163;55.630;37.594;2022-09-25T01:42:22;0.9;;;0.4;;
74644;SDS011;63163;55.630;37.594;2022-09-25T01:43:24;0.7;;;0.4;;
74644;SDS011;63163;55.630;37.594;2022-09-25T01:44:27;0.6;;;0.4;;
74644;SDS011;63163;55.630;37.594;2022-09-25T01:45:30;0.3;;;0.3;;
74644;SDS011;63163;55.630;37.594;2022-09-25T01:46:35;0.7;;;0.4;;
74644;SDS011;63163;55.630;37.594;2022-09-25T01:47:37;1.2;;;0.4;;
74644;SDS011;63163;55.630;37.594;2022-09-25T01:48:38;1.1;;;0.5;;
74644;SDS011;63163;55.630;37.594;2022-09-25T01:49:41;0.3;;;0.3;;
74644;SDS011;63163;55.630;37.594;2022-09-25T01:50:45;0.5;;;0.4;;
74644;SDS011;63163;55.630;37.594;2022-09-25T01:51:48;0.4;;;0.4;;
74644;SDS011;63163;55.630;37.594;2022-09-25T01:52:50;0.7;;;0.5;;
74644;SDS011;63163;55.630;37.594;2022-09-25T01:53:53;3.3;;;1.1;;
74644;SDS011;63163;55.630;37.594;2022-09-25T01:54:55;2.8;;;1.6;;
74644;SDS011;63163;55.630;37.594;2022-09-25T01:56:01;1.2;;;0.7;;
74644;SDS011;63163;55.630;37.594;2022-09-25T01:57:04;1.1;;;0.7;;
74644;SDS011;63163;55.630;37.594;2022-09-25T01:58:08;1.1;;;0.4;;
74644;SDS011;63163;55.630;37.594;2022-09-25T01:59:11;0.8;;;0.5;;
74644;SDS011;63163;55.630;37.594;2022-09-25T02:00:15;1.1;;;0.5;;
74644;SDS011;63163;55.630;37.594;2022-09-25T02:01:18;0.8;;;0.4;;
74644;SDS011;63163;55.630;37.594;2022-09-25T02:02:23;0.4;;;0.3;;
74644;SDS011;63163;55.630;37.594;2022-09-25T02:03:26;0.6;;;0.5;;
74644;SDS011;63163;55.630;37.594;2022-09-25T02:04:28;0.8;;;0.5;;
74644;SDS011;63163;55.630;37.594;2022-09-25T02:05:31;1.8;;;0.5;;
74644;SDS011;63163;55.630;37.594;2022-09-25T02:06:33;1.7;;;0.5;;
74644;SDS011;63163;55.630;37.594;2022-09-25T02:07:38;0.6;;;0.4;;
74644;SDS011;63163;55.630;37.594;2022-09-25T02:08:42;0.8;;;0.5;;
74644;SDS011;63163;55.630;37.594;2022-09-25T02:09:44;0.9;;;0.4;;
74644;SDS011;63163;55.630;37.594;2022-09-25T02:10:46;0.6;;;0.5;;
74644;SDS011;63163;55.630;37.594;2022-09-25T02:11:49;1.0;;;0.4;;
74644;SDS011;63163;55.630;37.594;2022-09-25T02:12:51;1.4;;;0.5;;
74644;SDS011;63163;55.630;37.594;2022-09-25T02:13:54;0.6;;;0.4;;
74644;SDS011;63163;55.630;37.594;2022-09-25T02:14:57;0.7;;;0.5;;
74644;SDS011;63163;55.630;37.594;2022-09-25T02:15:59;1.1;;;0.5;;
74644;SDS011;63163;55.630;37.594;2022-09-25T02:17:03;0.7;;;0.4;;
74644;SDS011;63163;55.630;37.594;2022-09-25T02:18:05;1.1;;;0.5;;
74644;SDS011;63163;55.630;37.594;2022-09-25T02:21:13;1.2;;;0.5;;
74644;SDS011;63163;55.630;37.594;2022-09-25T02:22:16;0.6;;;0.5;;
74644;SDS011;63163;55.630;37.594;2022-09-25T02:23:20;1.2;;;0.5;;
74644;SDS011;63163;55.630;37.594;2022-09-25T02:24:24;0.9;;;0.5;;
74644;SDS011;63163;55.630;37.594;2022-09-25T02:25:26;1.0;;;0.5;;
74644;SDS011;63163;55.630;37.594;2022-09-25T02:26:31;0.7;;;0.4;;
74644;SDS011;63163;55.630;37.594;2022-09-25T02:27:32;1.0;;;0.4;;
74644;SDS011;63163;55.630;37.594;2022-09-25T02:28:33;0.9;;;0.6;;
74644;SDS011;63163;55.630;37.594;2022-09-25T02:29:34;0.6;;;0.4;;
74644;SDS011;63163;55.630;37.594;2022-09-25T02:30:34;0.5;;;0.3;;
74644;SDS011;63163;55.630;37.594;2022-09-25T02:31:35;0.5;;;0.4;;
74644;SDS011;63163;55.630;37.594;2022-09-25T02:32:38;0.8;;;0.4;;
74644;SDS011;63163;55.630;37.594;2022-09-25T02:33:38;0.5;;;0.4;;
74644;SDS011;63163;55.630;37.594;2022-09-25T02:34:39;1.1;;;0.4;;
74644;SDS011;63163;55.630;37.594;2022-09-25T02:35:40;0.7;;;0.4;;
74644;SDS011;63163;55.630;37.594;2022-09-25T02:36:41;0.6;;;0.4;;
74644;SDS011;63163;55.630;37.594;2022-09-25T02:37:42;3.4;;;2.0;;
74644;SDS011;63163;55.630;37.594;2022-09-25T02:38:43;6.1;;;3.1;;
74644;SDS011;63163;55.630;37.594;2022-09-25T02:39:44;1.0;;;0.7;;
74644;SDS011;63163;55.630;37.594;2022-09-25T02:40:48;1.0;;;0.5;;
74644;SDS011;63163;55.630;37.594;2022-09-25T02:41:56;0.9;;;0.4;;
74644;SDS011;63163;55.630;37.594;2022-09-25T02:43:04;0.8;;;0.5;;
74644;SDS011;63163;55.630;37.594;2022-09-25T02:44:10;1.4;;;0.8;;
74644;SDS011;63163;55.630;37.594;2022-09-25T02:45:18;1.2;;;0.5;;
74644;SDS011;63163;55.630;37.594;2022-09-25T02:46:23;0.4;;;0.4;;
74644;SDS011;63163;55.630;37.594;2022-09-25T02:47:31;0.7;;;0.4;;
74644;SDS011;63163;55.630;37.594;2022-09-25T02:48:35;0.7;;;0.5;;
74644;SDS011;63163;55.630;37.594;2022-09-25T02:49:39;1.0;;;0.5;;
74644;SDS011;63163;55.630;37.594;2022-09-25T02:50:44;0.8;;;0.4;;
74644;SDS011;63163;55.630;37.594;2022-09-25T02:51:48;0.7;;;0.6;;
74644;SDS011;63163;55.630;37.594;2022-09-25T02:52:52;1.1;;;0.4;;
74644;SDS011;63163;55.630;37.594;2022-09-25T02:54:01;1.1;;;0.7;;
74644;SDS011;63163;55.630;37.594;2022-09-25T02:55:04;1.1;;;0.5;;
74644;SDS011;63163;55.630;37.594;2022-09-25T02:56:07;1.5;;;0.5;;
74644;SDS011;63163;55.630;37.594;2022-09-25T02:57:11;0.6;;;0.4;;
74644;SDS011;63163;55.630;37.594;2022-09-25T02:58:15;1.5;;;0.4;;
74644;SDS011;63163;55.630;37.594;2022-09-25T02:59:18;0.9;;;0.5;;
74644;SDS011;63163;55.630;37.594;2022-09-25T03:00:20;0.6;;;0.5;;
74644;SDS011;63163;55.630;37.594;2022-09-25T03:01:23;1.6;;;0.7;;
74644;SDS011;63163;55.630;37.594;2022-09-25T03:02:24;1.1;;;0.6;;
74644;SDS011;63163;55.630;37.594;2022-09-25T03:03:26;1.4;;;0.5;;
74644;SDS011;63163;55.630;37.594;2022-09-25T03:04:27;1.3;;;0.5;;
74644;SDS011;63163;55.630;37.594;2022-09-25T03:05:28;0.7;;;0.6;;
74644;SDS011;63163;55.630;37.594;2022-09-25T03:06:29;1.6;;;0.8;;
74644;SDS011;63163;55.630;37.594;2022-09-25T03:07:30;2.2;;;0.6;;
74644;SDS011;63163;55.630;37.594;2022-09-25T03:09:36;1.2;;;0.7;;
74644;SDS011;63163;55.630;37.594;2022-09-25T03:10:39;2.9;;;0.9;;
74644;SDS011;63163;55.630;37.594;2022-09-25T03:11:40;1.0;;;0.6;;
74644;SDS011;63163;55.630;37.594;2022-09-25T03:12:42;1.9;;;0.8;;
74644;SDS011;63163;55.630;37.594;2022-09-25T03:13:43;1.6;;;0.9;;
74644;SDS011;63163;55.630;37.594;2022-09-25T03:14:43;1.7;;;0.8;;
74644;SDS011;63163;55.630;37.594;2022-09-25T03:15:45;1.6;;;0.6;;
74644;SDS011;63163;55.630;37.594;2022-09-25T03:16:48;1.5;;;0.7;;
74644;SDS011;63163;55.630;37.594;2022-09-25T03:17:49;2.6;;;0.9;;
74644;SDS011;63163;55.630;37.594;2022-09-25T03:18:51;1.3;;;0.7;;
74644;SDS011;63163;55.630;37.594;2022-09-25T03:19:51;2.0;;;0.7;;
74644;SDS011;63163;55.630;37.594;2022-09-25T03:20:52;1.5;;;0.8;;
74644;SDS011;63163;55.630;37.594;2022-09-25T03:21:52;1.3;;;0.8;;
74644;SDS011;63163;55.630;37.594;2022-09-25T03:22:53;1.6;;;0.8;;
74644;SDS011;63163;55.630;37.594;2022-09-25T03:23:53;1.1;;;0.7;;
74644;SDS011;63163;55.630;37.594;2022-09-25T03:24:56;1.0;;;0.7;;
74644;SDS011;63163;55.630;37.594;2022-09-25T03:25:56;1.0;;;0.7;;
74644;SDS011;63163;55.630;37.594;2022-09-25T03:26:57;3.8;;;0.7;;
74644;SDS011;63163;55.630;37.594;2022-09-25T03:27:58;1.3;;;0.7;;
74644;SDS011;63163;55.630;37.594;2022-09-25T03:28:58;1.4;;;0.9;;
74644;SDS011;63163;55.630;37.594;2022-09-25T03:30:01;1.5;;;0.7;;
74644;SDS011;63163;55.630;37.594;2022-09-25T03:31:03;1.2;;;0.8;;
74644;SDS011;63163;55.630;37.594;2022-09-25T03:32:04;2.2;;;0.9;;
74644;SDS011;63163;55.630;37.594;2022-09-25T03:33:05;1.0;;;0.7;;
74644;SDS011;63163;55.630;37.594;2022-09-25T03:34:05;1.3;;;0.7;;
74644;SDS011;63163;55.630;37.594;2022-09-25T03:35:06;1.3;;;0.7;;
74644;SDS011;63163;55.630;37.594;2022-09-25T03:36:08;1.4;;;0.7;;
74644;SDS011;63163;55.630;37.594;2022-09-25T03:37:10;1.0;;;0.6;;
74644;SDS011;63163;55.630;37.594;2022-09-25T03:38:10;1.3;;;0.7;;
74644;SDS011;63163;55.630;37.594;2022-09-25T03:39:12;1.4;;;0.8;;
74644;SDS011;63163;55.630;37.594;2022-09-25T03:40:14;2.2;;;0.9;;
74644;SDS011;63163;55.630;37.594;2022-09-25T03:41:15;1.6;;;0.8;;
74644;SDS011;63163;55.630;37.594;2022-09-25T03:42:19;2.1;;;0.7;;
74644;SDS011;63163;55.630;37.594;2022-09-25T03:43:19;1.9;;;0.7;;
74644;SDS011;63163;55.630;37.594;2022-09-25T03:44:20;1.0;;;0.7;;
74644;SDS011;63163;55.630;37.594;2022-09-25T03:45:20;1.5;;;0.6;;
74644;SDS011;63163;55.630;37.594;2022-09-25T03:46:22;1.1;;;0.6;;
74644;SDS011;63163;55.630;37.594;2022-09-25T03:47:23;1.0;;;0.6;;
74644;SDS011;63163;55.630;37.594;2022-09-25T03:48:23;0.8;;;0.6;;
74644;SDS011;63163;55.630;37.594;2022-09-25T03:49:24;1.2;;;0.5;;
74644;SDS011;63163;55.630;37.594;2022-09-25T03:50:24;0.8;;;0.5;;
74644;SDS011;63163;55.630;37.594;2022-09-25T03:51:25;1.4;;;0.6;;
74644;SDS011;63163;55.630;37.594;2022-09-25T03:52:26;0.7;;;0.6;;
74644;SDS011;63163;55.630;37.594;2022-09-25T03:53:27;1.7;;;0.6;;
74644;SDS011;63163;55.630;37.594;2022-09-25T03:54:30;1.2;;;0.8;;
74644;SDS011;63163;55.630;37.594;2022-09-25T03:55:31;1.5;;;0.7;;
74644;SDS011;63163;55.630;37.594;2022-09-25T03:56:32;0.7;;;0.6;;
74644;SDS011;63163;55.630;37.594;2022-09-25T03:57:33;0.9;;;0.7;;
74644;SDS011;63163;55.630;37.594;2022-09-25T03:58:33;0.8;;;0.6;;
74644;SDS011;63163;55.630;37.594;2022-09-25T03:59:34;0.9;;;0.5;;
74644;SDS011;63163;55.630;37.594;2022-09-25T04:00:34;0.8;;;0.6;;
74644;SDS011;63163;55.630;37.594;2022-09-25T04:01:35;0.7;;;0.6;;
74644;SDS011;63163;55.630;37.594;2022-09-25T04:02:36;0.8;;;0.5;;
74644;SDS011;63163;55.630;37.594;2022-09-25T04:03:36;1.0;;;0.4;;
74644;SDS011;63163;55.630;37.594;2022-09-25T04:04:38;2.1;;;0.5;;
74644;SDS011;63163;55.630;37.594;2022-09-25T04:05:39;1.1;;;0.6;;
74644;SDS011;63163;55.630;37.594;2022-09-25T04:06:40;0.9;;;0.5;;
74644;SDS011;63163;55.630;37.594;2022-09-25T04:07:41;0.7;;;0.4;;
74644;SDS011;63163;55.630;37.594;2022-09-25T04:08:41;1.6;;;0.6;;
74644;SDS011;63163;55.630;37.594;2022-09-25T04:09:42;0.7;;;0.5;;
74644;SDS011;63163;55.630;37.594;2022-09-25T04:10:42;1.0;;;0.4;;
74644;SDS011;63163;55.630;37.594;2022-09-25T04:11:43;1.6;;;0.5;;
74644;SDS011;63163;55.630;37.594;2022-09-25T04:12:44;0.7;;;0.3;;
74644;SDS011;63163;55.630;37.594;2022-09-25T04:13:45;1.1;;;0.4;;
74644;SDS011;63163;55.630;37.594;2022-09-25T04:14:45;0.9;;;0.5;;
74644;SDS011;63163;55.630;37.594;2022-09-25T04:15:46;0.8;;;0.5;;
74644;SDS011;63163;55.630;37.594;2022-09-25T04:16:46;1.4;;;0.7;;
74644;SDS011;63163;55.630;37.594;2022-09-25T04:17:47;1.3;;;0.7;;
74644;SDS011;63163;55.630;37.594;2022-09-25T04:18:47;0.8;;;0.5;;
74644;SDS011;63163;55.630;37.594;2022-09-25T04:19:49;0.5;;;0.4;;
74644;SDS011;63163;55.630;37.594;2022-09-25T04:20:49;0.5;;;0.3;;
74644;SDS011;63163;55.630;37.594;2022-09-25T04:21:50;0.6;;;0.4;;
74644;SDS011;63163;55.630;37.594;2022-09-25T04:22:50;0.8;;;0.4;;
74644;SDS011;63163;55.630;37.594;2022-09-25T04:23:51;0.7;;;0.3;;
74644;SDS011;63163;55.630;37.594;2022-09-25T04:25:55;0.4;;;0.4;;
74644;SDS011;63163;55.630;37.594;2022-09-25T04:26:55;0.6;;;0.5;;
74644;SDS011;63163;55.630;37.594;2022-09-25T04:27:56;1.2;;;0.5;;
74644;SDS011;63163;55.630;37.594;2022-09-25T04:28:57;1.8;;;0.6;;
74644;SDS011;63163;55.630;37.594;2022-09-25T04:30:00;0.8;;;0.6;;
74644;SDS011;63163;55.630;37.594;2022-09-25T04:31:01;0.7;;;0.4;;
74644;SDS011;63163;55.630;37.594;2022-09-25T04:32:02;1.6;;;0.7;;
74644;SDS011;63163;55.630;37.594;2022-09-25T04:35:10;1.8;;;0.7;;
74644;SDS011;63163;55.630;37.594;2022-09-25T04:36:11;1.4;;;0.7;;
74644;SDS011;63163;55.630;37.594;2022-09-25T04:37:11;2.3;;;0.7;;
74644;SDS011;63163;55.630;37.594;2022-09-25T04:38:13;1.6;;;0.6;;
74644;SDS011;63163;55.630;37.594;2022-09-25T04:39:13;2.3;;;0.8;;
74644;SDS011;63163;55.630;37.594;2022-09-25T04:40:19;1.3;;;0.6;;
74644;SDS011;63163;55.630;37.594;2022-09-25T04:41:19;2.0;;;0.7;;
74644;SDS011;63163;55.630;37.594;2022-09-25T04:42:20;2.5;;;0.7;;
74644;SDS011;63163;55.630;37.594;2022-09-25T04:43:23;1.3;;;0.9;;
74644;SDS011;63163;55.630;37.594;2022-09-25T04:44:24;2.6;;;1.2;;
74644;SDS011;63163;55.630;37.594;2022-09-25T04:45:24;2.7;;;1.1;;
74644;SDS011;63163;55.630;37.594;2022-09-25T04:46:26;2.7;;;1.0;;
74644;SDS011;63163;55.630;37.594;2022-09-25T04:47:27;2.7;;;0.9;;
74644;SDS011;63163;55.630;37.594;2022-09-25T04:48:30;2.4;;;1.2;;
74644;SDS011;63163;55.630;37.594;2022-09-25T04:49:31;2.5;;;1.2;;
74644;SDS011;63163;55.630;37.594;2022-09-25T04:50:32;2.0;;;1.1;;
74644;SDS011;63163;55.630;37.594;2022-09-25T04:51:32;2.9;;;1.1;;
74644;SDS011;63163;55.630;37.594;2022-09-25T04:52:33;1.8;;;1.1;;
74644;SDS011;63163;55.630;37.594;2022-09-25T04:53:33;1.7;;;1.1;;
74644;SDS011;63163;55.630;37.594;2022-09-25T04:54:35;2.8;;;1.3;;
74644;SDS011;63163;55.630;37.594;2022-09-25T04:55:36;7.4;;;1.4;;
74644;SDS011;63163;55.630;37.594;2022-09-25T04:56:37;3.5;;;1.4;;
74644;SDS011;63163;55.630;37.594;2022-09-25T04:57:38;1.9;;;1.1;;
74644;SDS011;63163;55.630;37.594;2022-09-25T04:58:38;2.6;;;1.3;;
74644;SDS011;63163;55.630;37.594;2022-09-25T04:59:42;3.3;;;1.6;;
74644;SDS011;63163;55.630;37.594;2022-09-25T05:00:44;5.0;;;1.8;;
74644;SDS011;63163;55.630;37.594;2022-09-25T05:01:44;4.7;;;1.6;;
74644;SDS011;63163;55.630;37.594;2022-09-25T05:02:46;4.8;;;2.0;;
74644;SDS011;63163;55.630;37.594;2022-09-25T05:03:47;4.3;;;1.8;;
74644;SDS011;63163;55.630;37.594;2022-09-25T05:04:49;4.2;;;1.9;;
74644;SDS011;63163;55.630;37.594;2022-09-25T05:05:49;4.3;;;2.1;;
74644;SDS011;63163;55.630;37.594;2022-09-25T05:06:50;5.9;;;2.0;;
74644;SDS011;63163;55.630;37.594;2022-09-25T05:07:50;4.9;;;2.1;;
74644;SDS011;63163;55.630;37.594;2022-09-25T05:08:51;6.4;;;2.9;;
74644;SDS011;63163;55.630;37.594;2022-09-25T05:09:52;6.4;;;2.6;;
74644;SDS011;63163;55.630;37.594;2022-09-25T05:10:52;5.2;;;2.7;;
74644;SDS011;63163;55.630;37.594;2022-09-25T05:11:53;6.6;;;2.9;;
74644;SDS011;63163;55.630;37.594;2022-09-25T05:12:54;6.1;;;2.9;;
74644;SDS011;63163;55.630;37.594;2022-09-25T05:13:55;8.1;;;3.3;;
74644;SDS011;63163;55.630;37.594;2022-09-25T05:14:55;7.0;;;3.5;;
74644;SDS011;63163;55.630;37.594;2022-09-25T05:15:56;7.0;;;3.2;;
74644;SDS011;63163;55.630;37.594;2022-09-25T05:16:57;9.0;;;3.6;;
74644;SDS011;63163;55.630;37.594;2022-09-25T05:17:59;8.4;;;3.6;;
74644;SDS011;63163;55.630;37.594;2022-09-25T05:18:59;8.5;;;3.5;;
74644;SDS011;63163;55.630;37.594;2022-09-25T05:20:00;8.1;;;3.7;;
74644;SDS011;63163;55.630;37.594;2022-09-25T05:21:02;7.9;;;4.1;;
74644;SDS011;63163;55.630;37.594;2022-09-25T05:22:02;8.9;;;3.4;;
74644;SDS011;63163;55.630;37.594;2022-09-25T05:23:03;8.9;;;4.1;;
74644;SDS011;63163;55.630;37.594;2022-09-25T05:24:04;8.3;;;4.6;;
74644;SDS011;63163;55.630;37.594;2022-09-25T05:25:05;7.1;;;3.5;;
74644;SDS011;63163;55.630;37.594;2022-09-25T05:26:06;7.4;;;3.7;;
74644;SDS011;63163;55.630;37.594;2022-09-25T05:27:06;7.1;;;3.0;;
74644;SDS011;63163;55.630;37.594;2022-09-25T05:28:07;5.8;;;3.2;;
74644;SDS011;63163;55.630;37.594;2022-09-25T05:29:08;6.8;;;3.6;;
74644;SDS011;63163;55.630;37.594;2022-09-25T05:30:10;6.1;;;3.4;;
74644;SDS011;63163;55.630;37.594;2022-09-25T05:31:11;6.2;;;2.9;;
74644;SDS011;63163;55.630;37.594;2022-09-25T05:32:11;6.3;;;2.7;;
74644;SDS011;63163;55.630;37.594;2022-09-25T05:33:12;4.4;;;2.1;;
74644;SDS011;63163;55.630;37.594;2022-09-25T05:34:12;6.3;;;2.3;;
74644;SDS011;63163;55.630;37.594;2022-09-25T05:35:13;5.7;;;2.6;;
74644;SDS011;63163;55.630;37.594;2022-09-25T05:36:13;3.9;;;2.1;;
74644;SDS011;63163;55.630;37.594;2022-09-25T05:37:14;4.7;;;1.7;;
74644;SDS011;63163;55.630;37.594;2022-09-25T05:38:14;5.5;;;2.2;;
74644;SDS011;63163;55.630;37.594;2022-09-25T05:39:15;4.5;;;1.7;;
74644;SDS011;63163;55.630;37.594;2022-09-25T05:40:16;5.7;;;2.3;;
74644;SDS011;63163;55.630;37.594;2022-09-25T05:41:17;4.0;;;2.0;;
74644;SDS011;63163;55.630;37.594;2022-09-25T05:42:18;6.6;;;2.6;;
74644;SDS011;63163;55.630;37.594;2022-09-25T05:43:18;6.5;;;2.4;;
74644;SDS011;63163;55.630;37.594;2022-09-25T05:44:19;5.7;;;2.2;;
74644;SDS011;63163;55.630;37.594;2022-09-25T05:45:20;4.9;;;2.0;;
74644;SDS011;63163;55.630;37.594;2022-09-25T05:46:22;4.8;;;2.2;;
74644;SDS011;63163;55.630;37.594;2022-09-25T05:47:22;7.4;;;2.5;;
74644;SDS011;63163;55.630;37.594;2022-09-25T05:48:23;7.9;;;2.9;;
74644;SDS011;63163;55.630;37.594;2022-09-25T05:49:24;7.4;;;2.4;;
74644;SDS011;63163;55.630;37.594;2022-09-25T05:50:24;5.1;;;2.2;;
74644;SDS011;63163;55.630;37.594;2022-09-25T05:51:25;6.1;;;2.7;;
74644;SDS011;63163;55.630;37.594;2022-09-25T05:52:25;4.3;;;1.9;;
74644;SDS011;63163;55.630;37.594;2022-09-25T05:53:26;3.4;;;1.6;;
74644;SDS011;63163;55.630;37.594;2022-09-25T05:54:27;3.5;;;1.5;;
74644;SDS011;63163;55.630;37.594;2022-09-25T05:55:27;2.9;;;1.3;;
74644;SDS011;63163;55.630;37.594;2022-09-25T05:56:28;3.7;;;1.3;;
74644;SDS011;63163;55.630;37.594;2022-09-25T05:57:29;2.8;;;0.9;;
74644;SDS011;63163;55.630;37.594;2022-09-25T05:58:30;1.6;;;1.0;;
74644;SDS011;63163;55.630;37.594;2022-09-25T05:59:32;1.4;;;0.7;;
74644;SDS011;63163;55.630;37.594;2022-09-25T06:00:34;2.2;;;1.0;;
74644;SDS011;63163;55.630;37.594;2022-09-25T06:01:34;1.2;;;0.8;;
74644;SDS011;63163;55.630;37.594;2022-09-25T06:02:35;3.1;;;0.9;;
74644;SDS011;63163;55.630;37.594;2022-09-25T06:03:35;2.6;;;1.1;;
74644;SDS011;63163;55.630;37.594;2022-09-25T06:04:36;2.7;;;1.1;;
74644;SDS011;63163;55.630;37.594;2022-09-25T06:05:36;3.6;;;1.4;;
74644;SDS011;63163;55.630;37.594;2022-09-25T06:06:37;4.3;;;1.5;;
74644;SDS011;63163;55.630;37.594;2022-09-25T06:07:38;2.6;;;1.3;;
74644;SDS011;63163;55.630;37.594;2022-09-25T06:08:38;1.7;;;1.1;;
74644;SDS011;63163;55.630;37.594;2022-09-25T06:09:39;1.7;;;0.9;;
74644;SDS011;63163;55.630;37.594;2022-09-25T06:10:39;3.9;;;1.5;;
74644;SDS011;63163;55.630;37.594;2022-09-25T06:11:40;2.5;;;1.0;;
74644;SDS011;63163;55.630;37.594;2022-09-25T06:12:46;3.2;;;1.3;;
74644;SDS011;63163;55.630;37.594;2022-09-25T06:13:47;2.1;;;1.2;;
74644;SDS011;63163;55.630;37.594;2022-09-25T06:14:49;3.6;;;1.2;;
74644;SDS011;63163;55.630;37.594;2022-09-25T06:15:51;5.1;;;1.4;;
74644;SDS011;63163;55.630;37.594;2022-09-25T06:16:51;3.9;;;1.5;;
74644;SDS011;63163;55.630;37.594;2022-09-25T06:17:52;3.7;;;1.4;;
74644;SDS011;63163;55.630;37.594;2022-09-25T06:18:53;6.1;;;1.5;;
74644;SDS011;63163;55.630;37.594;2022-09-25T06:19:53;2.3;;;1.2;;
74644;SDS011;63163;55.630;37.594;2022-09-25T06:20:58;3.8;;;1.1;;
74644;SDS011;63163;55.630;37.594;2022-09-25T06:21:59;3.5;;;1.4;;
74644;SDS011;63163;55.630;37.594;2022-09-25T06:22:59;3.0;;;1.1;;
74644;SDS011;63163;55.630;37.594;2022-09-25T06:24:00;2.0;;;0.8;;
74644;SDS011;63163;55.630;37.594;2022-09-25T06:25:01;2.0;;;0.9;;
74644;SDS011;63163;55.630;37.594;2022-09-25T06:26:01;3.0;;;0.9;;